createdAt,value
2023-05-13T00:00:02.994Z,6.40
2023-05-13T00:01:06.738Z,12.10
2023-05-13T00:02:08.966Z,11.50
2023-05-13T00:03:11.273Z,11.90
2023-05-13T00:04:13.437Z,17.90
2023-05-13T00:05:15.786Z,14.40
2023-05-13T00:06:19.023Z,12.50
2023-05-13T00:07:21.473Z,13.20
2023-05-13T00:08:23.691Z,9.60
2023-05-13T00:09:26.134Z,12.90
2023-05-13T00:10:28.591Z,10.30
2023-05-13T00:11:30.906Z,12.80
2023-05-13T00:12:33.145Z,14.00
2023-05-13T00:13:35.475Z,10.90
2023-05-13T00:14:37.551Z,14.40
2023-05-13T00:15:40.173Z,13.70
2023-05-13T00:16:42.781Z,11.40
2023-05-13T00:17:45.674Z,10.30
2023-05-13T00:18:47.803Z,8.40
2023-05-13T00:19:50.044Z,12.30
2023-05-13T00:20:53.546Z,10.60
2023-05-13T00:21:55.753Z,10.90
2023-05-13T00:22:58.028Z,13.40
2023-05-13T00:24:00.653Z,12.20
2023-05-13T00:25:03.941Z,13.30
2023-05-13T00:26:06.327Z,9.70
2023-05-13T00:27:09.583Z,15.10
2023-05-13T00:28:13.827Z,12.00
2023-05-13T00:29:15.998Z,13.30
2023-05-13T00:30:18.418Z,14.70
2023-05-13T00:31:22.448Z,12.30
2023-05-13T00:32:25.044Z,15.20
2023-05-13T00:33:28.164Z,12.60
2023-05-13T00:34:30.277Z,11.60
2023-05-13T00:35:32.175Z,15.30
2023-05-13T00:36:34.562Z,11.90
2023-05-13T00:37:37.199Z,15.20
2023-05-13T00:38:39.407Z,12.40
2023-05-13T00:39:41.704Z,12.10
2023-05-13T00:40:44.388Z,13.50
2023-05-13T00:41:47.031Z,13.70
2023-05-13T00:42:50.053Z,9.80
2023-05-13T00:43:58.609Z,11.70
2023-05-13T00:45:00.654Z,13.10
2023-05-13T00:46:03.069Z,7.00
2023-05-13T00:47:06.185Z,14.30
2023-05-13T00:48:08.738Z,11.64
2023-05-13T00:49:11.155Z,13.00
2023-05-13T00:50:14.517Z,12.18
2023-05-13T00:51:17.177Z,11.00
2023-05-13T00:52:19.737Z,10.91
2023-05-13T00:53:22.139Z,9.40
2023-05-13T00:54:24.657Z,11.50
2023-05-13T00:55:26.741Z,11.30
2023-05-13T00:56:29.897Z,12.20
2023-05-13T00:57:32.752Z,8.00
2023-05-13T00:58:35.008Z,11.36
2023-05-13T00:59:37.028Z,10.60
2023-05-13T01:00:42.942Z,11.40
2023-05-13T01:01:48.746Z,12.60
2023-05-13T01:02:54.804Z,9.70
2023-05-13T01:04:16.794Z,11.60
2023-05-13T01:06:48.817Z,11.60
2023-05-13T01:08:06.835Z,12.00
2023-05-13T01:09:20.051Z,9.80
2023-05-13T01:10:37.677Z,10.70
2023-05-13T01:11:42.129Z,9.00
2023-05-13T01:12:46.175Z,12.20
2023-05-13T01:13:51.015Z,11.70
2023-05-13T01:15:13.186Z,11.50
2023-05-13T01:16:22.561Z,11.40
2023-05-13T01:17:28.783Z,11.40
2023-05-13T01:18:40.850Z,11.00
2023-05-13T01:19:49.792Z,10.40
2023-05-13T01:20:52.652Z,9.30
2023-05-13T01:21:55.152Z,9.90
2023-05-13T01:22:58.570Z,10.55
2023-05-13T01:24:01.778Z,10.60
2023-05-13T01:25:04.272Z,11.70
2023-05-13T01:26:07.464Z,8.36
2023-05-13T01:27:12.096Z,8.80
2023-05-13T01:28:15.501Z,8.70
2023-05-13T01:29:18.967Z,10.20
2023-05-13T01:30:23.229Z,8.80
2023-05-13T01:31:27.636Z,10.90
2023-05-13T01:32:30.420Z,7.30
2023-05-13T01:33:33.231Z,10.45
2023-05-13T01:34:38.073Z,9.60
2023-05-13T01:35:40.753Z,10.60
2023-05-13T01:36:43.818Z,9.90
2023-05-13T01:37:51.727Z,9.40
2023-05-13T01:38:55.773Z,10.50
2023-05-13T01:39:58.023Z,10.30
2023-05-13T01:41:00.342Z,10.80
2023-05-13T01:42:03.641Z,8.09
2023-05-13T01:43:06.894Z,10.40
2023-05-13T01:44:11.392Z,9.90
2023-05-13T01:45:14.393Z,10.80
2023-05-13T01:46:16.707Z,9.80
2023-05-13T01:47:19.139Z,9.60
2023-05-13T01:48:23.495Z,9.40
2023-05-13T01:49:25.584Z,8.80
2023-05-13T01:50:27.997Z,10.00
2023-05-13T01:51:32.094Z,7.60
2023-05-13T01:52:34.563Z,10.20
2023-05-13T01:53:36.910Z,10.20
2023-05-13T01:54:39.253Z,11.00
2023-05-13T01:55:43.424Z,10.90
2023-05-13T01:56:46.327Z,10.82
2023-05-13T01:57:48.603Z,11.50
2023-05-13T01:58:50.711Z,9.00
2023-05-13T01:59:52.973Z,10.70
2023-05-13T02:00:55.688Z,10.20
2023-05-13T02:01:57.821Z,12.10
2023-05-13T02:03:02.848Z,11.20
2023-05-13T02:04:05.108Z,9.80
2023-05-13T02:05:08.307Z,9.00
2023-05-13T02:06:10.873Z,11.00
2023-05-13T02:07:15.644Z,10.50
2023-05-13T02:08:22.653Z,5.80
2023-05-13T02:09:24.808Z,9.30
2023-05-13T02:10:28.306Z,9.10
2023-05-13T02:11:32.668Z,7.80
2023-05-13T02:12:35.579Z,9.50
2023-05-13T02:13:39.454Z,9.60
2023-05-13T02:14:41.889Z,11.20
2023-05-13T02:15:44.116Z,11.10
2023-05-13T02:16:46.506Z,10.10
2023-05-13T02:17:48.841Z,10.60
2023-05-13T02:18:51.189Z,8.10
2023-05-13T02:19:53.427Z,10.80
2023-05-13T02:20:56.854Z,9.10
2023-05-13T02:21:59.341Z,8.30
2023-05-13T02:23:01.673Z,10.30
2023-05-13T02:24:04.953Z,10.30
2023-05-13T02:25:08.040Z,8.00
2023-05-13T02:26:12.779Z,10.80
2023-05-13T02:27:15.917Z,8.00
2023-05-13T02:28:18.546Z,9.90
2023-05-13T02:29:21.507Z,9.30
2023-05-13T02:30:26.009Z,7.70
2023-05-13T02:31:28.216Z,9.40
2023-05-13T02:32:30.721Z,8.60
2023-05-13T02:33:33.131Z,7.90
2023-05-13T02:34:35.360Z,9.60
2023-05-13T02:35:38.703Z,9.80
2023-05-13T02:36:41.747Z,9.40
2023-05-13T02:37:45.883Z,9.30
2023-05-13T02:38:47.851Z,10.10
2023-05-13T02:39:50.451Z,9.20
2023-05-13T02:40:53.517Z,9.20
2023-05-13T02:41:56.829Z,8.60
2023-05-13T02:42:59.870Z,6.40
2023-05-13T02:44:05.199Z,9.40
2023-05-13T02:45:09.271Z,10.10
2023-05-13T02:46:12.625Z,9.10
2023-05-13T02:47:15.569Z,11.80
2023-05-13T02:48:18.138Z,10.20
2023-05-13T02:49:20.551Z,8.50
2023-05-13T02:50:24.469Z,9.80
2023-05-13T02:51:27.740Z,11.20
2023-05-13T02:52:29.610Z,10.00
2023-05-13T02:53:31.672Z,11.44
2023-05-13T02:54:35.612Z,8.40
2023-05-13T02:55:37.887Z,10.50
2023-05-13T02:56:40.173Z,9.60
2023-05-13T02:57:43.311Z,10.20
2023-05-13T02:58:45.693Z,8.36
2023-05-13T02:59:48.100Z,11.90
2023-05-13T03:00:51.349Z,10.70
2023-05-13T03:01:53.881Z,10.70
2023-05-13T03:02:56.954Z,10.90
2023-05-13T03:03:59.478Z,11.80
2023-05-13T03:05:01.700Z,11.30
2023-05-13T03:06:05.222Z,10.90
2023-05-13T03:07:07.641Z,10.60
2023-05-13T03:08:09.973Z,10.10
2023-05-13T03:09:13.337Z,10.40
2023-05-13T03:10:16.805Z,11.20
2023-05-13T03:11:21.066Z,10.40
2023-05-13T03:12:23.371Z,10.40
2023-05-13T03:13:26.621Z,10.70
2023-05-13T03:14:28.757Z,10.90
2023-05-13T03:15:31.180Z,9.60
2023-05-13T03:16:34.696Z,12.90
2023-05-13T03:17:37.062Z,11.27
2023-05-13T03:18:39.384Z,11.80
2023-05-13T03:19:41.550Z,9.60
2023-05-13T03:20:44.240Z,10.20
2023-05-13T03:21:46.559Z,9.80
2023-05-13T03:22:49.633Z,10.90
2023-05-13T03:23:51.952Z,10.30
2023-05-13T03:24:56.138Z,12.90
2023-05-13T03:26:01.297Z,11.56
2023-05-13T03:27:04.034Z,11.60
2023-05-13T03:28:08.535Z,9.40
2023-05-13T03:29:12.928Z,11.20
2023-05-13T03:30:15.505Z,11.20
2023-05-13T03:31:20.761Z,9.80
2023-05-13T03:32:24.894Z,11.10
2023-05-13T03:33:29.246Z,10.80
2023-05-13T03:34:32.735Z,10.40
2023-05-13T03:35:35.211Z,11.50
2023-05-13T03:36:38.804Z,11.36
2023-05-13T03:37:42.691Z,10.80
2023-05-13T03:38:45.493Z,9.70
2023-05-13T03:39:48.654Z,10.10
2023-05-13T03:40:51.133Z,11.80
2023-05-13T03:41:53.568Z,10.30
2023-05-13T03:42:55.983Z,11.00
2023-05-13T03:43:59.059Z,9.09
2023-05-13T03:45:01.874Z,11.55
2023-05-13T03:46:04.598Z,11.45
2023-05-13T03:47:07.197Z,10.00
2023-05-13T03:48:09.662Z,11.70
2023-05-13T03:49:11.892Z,9.67
2023-05-13T03:50:15.417Z,10.50
2023-05-13T03:51:20.338Z,10.90
2023-05-13T03:52:22.747Z,9.20
2023-05-13T03:53:25.145Z,11.00
2023-05-13T03:54:28.629Z,9.60
2023-05-13T03:55:31.014Z,4.90
2023-05-13T03:56:33.541Z,11.20
2023-05-13T03:57:36.732Z,10.70
2023-05-13T03:58:39.518Z,10.45
2023-05-13T03:59:42.759Z,10.20
2023-05-13T04:00:46.735Z,11.20
2023-05-13T04:01:49.768Z,10.20
2023-05-13T04:02:52.124Z,9.82
2023-05-13T04:03:54.461Z,10.60
2023-05-13T04:04:56.547Z,9.00
2023-05-13T04:05:58.692Z,10.50
2023-05-13T04:07:00.928Z,9.50
2023-05-13T04:08:03.356Z,10.00
2023-05-13T04:09:05.760Z,8.10
2023-05-13T04:10:12.985Z,11.82
2023-05-13T04:11:14.769Z,11.60
2023-05-13T04:12:17.607Z,8.40
2023-05-13T04:13:20.665Z,10.40
2023-05-13T04:14:22.775Z,7.90
2023-05-13T04:15:25.088Z,7.80
2023-05-13T04:16:27.439Z,11.10
2023-05-13T04:17:29.515Z,9.00
2023-05-13T04:18:34.614Z,9.60
2023-05-13T04:19:37.616Z,10.80
2023-05-13T04:20:40.937Z,11.18
2023-05-13T04:21:43.086Z,11.30
2023-05-13T04:22:45.416Z,9.60
2023-05-13T04:23:49.562Z,9.60
2023-05-13T04:24:53.939Z,10.50
2023-05-13T04:25:57.458Z,11.00
2023-05-13T04:27:01.468Z,10.40
2023-05-13T04:28:05.067Z,10.90
2023-05-13T04:29:09.242Z,10.50
2023-05-13T04:30:13.216Z,11.64
2023-05-13T04:31:17.323Z,9.70
2023-05-13T04:32:21.841Z,12.55
2023-05-13T04:33:26.689Z,11.70
2023-05-13T04:34:28.912Z,13.70
2023-05-13T04:35:31.120Z,11.20
2023-05-13T04:36:35.378Z,13.90
2023-05-13T04:37:40.376Z,12.30
2023-05-13T04:38:45.872Z,12.60
2023-05-13T04:39:48.949Z,10.10
2023-05-13T04:40:53.200Z,11.00
2023-05-13T04:41:57.346Z,9.30
2023-05-13T04:42:59.943Z,7.10
2023-05-13T04:44:05.576Z,9.10
2023-05-13T04:45:08.753Z,13.40
2023-05-13T04:46:11.983Z,11.90
2023-05-13T04:47:14.311Z,12.80
2023-05-13T04:48:16.638Z,11.90
2023-05-13T04:49:18.717Z,10.60
2023-05-13T04:50:21.692Z,8.90
2023-05-13T04:51:27.583Z,9.60
2023-05-13T04:52:30.562Z,10.55
2023-05-13T04:53:32.794Z,10.90
2023-05-13T04:54:38.742Z,9.00
2023-05-13T04:55:41.863Z,7.50
2023-05-13T04:56:44.476Z,8.36
2023-05-13T04:57:46.999Z,11.40
2023-05-13T04:58:49.229Z,7.80
2023-05-13T04:59:51.412Z,9.10
2023-05-13T05:00:54.334Z,8.80
2023-05-13T05:01:56.773Z,8.30
2023-05-13T05:02:59.042Z,9.60
2023-05-13T05:04:02.958Z,9.30
2023-05-13T05:05:06.154Z,9.36
2023-05-13T05:06:10.290Z,7.80
2023-05-13T05:07:13.329Z,7.10
2023-05-13T05:08:16.484Z,6.30
2023-05-13T05:09:19.953Z,7.00
2023-05-13T05:10:24.046Z,7.80
2023-05-13T05:11:28.669Z,8.60
2023-05-13T05:12:31.734Z,7.20
2023-05-13T05:13:33.968Z,8.60
2023-05-13T05:14:37.585Z,7.80
2023-05-13T05:15:41.317Z,9.70
2023-05-13T05:16:45.159Z,8.10
2023-05-13T05:17:47.772Z,7.70
2023-05-13T05:18:50.539Z,9.40
2023-05-13T05:19:53.136Z,8.00
2023-05-13T05:20:55.559Z,7.40
2023-05-13T05:21:58.276Z,7.00
2023-05-13T05:23:00.841Z,6.09
2023-05-13T05:24:05.697Z,7.50
2023-05-13T05:25:09.485Z,6.70
2023-05-13T05:26:12.806Z,7.50
2023-05-13T05:27:17.812Z,6.50
2023-05-13T05:28:21.080Z,3.60
2023-05-13T05:29:23.689Z,7.36
2023-05-13T05:30:26.216Z,6.40
2023-05-13T05:31:33.072Z,6.40
2023-05-13T05:32:37.890Z,5.00
2023-05-13T05:33:41.768Z,6.70
2023-05-13T05:34:44.268Z,6.20
2023-05-13T05:35:46.572Z,5.10
2023-05-13T05:36:51.598Z,5.30
2023-05-13T05:37:55.472Z,5.70
2023-05-13T05:38:59.434Z,6.00
2023-05-13T05:40:04.824Z,5.30
2023-05-13T05:41:08.953Z,5.20
2023-05-13T05:42:11.358Z,6.00
2023-05-13T05:43:16.676Z,5.30
2023-05-13T05:44:19.026Z,5.50
2023-05-13T05:45:21.214Z,4.00
2023-05-13T05:46:24.262Z,5.00
2023-05-13T05:47:27.374Z,4.90
2023-05-13T05:48:29.671Z,2.40
2023-05-13T05:49:34.382Z,4.90
2023-05-13T05:50:37.350Z,4.20
2023-05-13T05:51:41.327Z,4.80
2023-05-13T05:52:43.725Z,4.80
2023-05-13T05:53:47.517Z,5.00
2023-05-13T05:54:51.744Z,4.70
2023-05-13T05:55:55.697Z,4.90
2023-05-13T05:56:58.552Z,3.91
2023-05-13T05:58:05.791Z,3.40
2023-05-13T05:59:10.407Z,4.40
2023-05-13T06:00:14.541Z,3.60
2023-05-13T06:01:19.780Z,4.30
2023-05-13T06:02:22.462Z,3.20
2023-05-13T06:03:27.299Z,5.30
2023-05-13T06:04:29.882Z,4.90
2023-05-13T06:05:32.123Z,3.00
2023-05-13T06:06:35.057Z,3.70
2023-05-13T06:07:37.498Z,3.82
2023-05-13T06:08:40.646Z,2.90
2023-05-13T06:09:42.989Z,3.80
2023-05-13T06:10:47.277Z,3.00
2023-05-13T06:11:50.074Z,4.10
2023-05-13T06:12:52.175Z,3.40
2023-05-13T06:13:54.282Z,3.40
2023-05-13T06:14:56.797Z,4.00
2023-05-13T06:15:59.144Z,10.40
2023-05-13T06:17:03.720Z,8.10
2023-05-13T06:18:06.328Z,6.10
2023-05-13T06:19:10.616Z,4.10
2023-05-13T06:20:13.518Z,4.00
2023-05-13T06:21:15.713Z,2.90
2023-05-13T06:22:18.025Z,3.50
2023-05-13T06:23:20.379Z,3.50
2023-05-13T06:24:22.761Z,7.00
2023-05-13T06:25:25.014Z,4.30
2023-05-13T06:26:27.325Z,4.00
2023-05-13T06:27:30.655Z,3.00
2023-05-13T06:28:32.952Z,3.00
2023-05-13T06:29:35.277Z,3.00
2023-05-13T06:30:38.150Z,3.80
2023-05-13T06:31:40.692Z,3.00
2023-05-13T06:32:50.343Z,3.50
2023-05-13T06:33:47.530Z,4.00
2023-05-13T06:34:55.131Z,3.50
2023-05-13T06:35:57.634Z,4.20
2023-05-13T06:37:01.607Z,1.00
2023-05-13T06:38:05.453Z,3.00
2023-05-13T06:39:11.262Z,3.30
2023-05-13T06:40:14.670Z,3.30
2023-05-13T06:41:18.742Z,2.30
2023-05-13T06:42:21.179Z,3.70
2023-05-13T06:43:25.429Z,3.30
2023-05-13T06:44:29.484Z,3.30
2023-05-13T06:45:31.921Z,3.40
2023-05-13T06:46:36.876Z,4.36
2023-05-13T06:47:39.334Z,3.10
2023-05-13T06:48:42.971Z,4.20
2023-05-13T06:49:46.453Z,3.80
2023-05-13T06:50:51.074Z,2.00
2023-05-13T06:51:53.457Z,3.64
2023-05-13T06:52:55.669Z,4.50
2023-05-13T06:53:57.885Z,2.70
2023-05-13T06:55:03.084Z,3.70
2023-05-13T06:56:06.202Z,4.10
2023-05-13T06:57:08.484Z,3.73
2023-05-13T06:58:10.892Z,4.40
2023-05-13T06:59:13.095Z,3.20
2023-05-13T07:00:18.116Z,3.60
2023-05-13T07:01:20.382Z,3.10
2023-05-13T07:02:22.725Z,2.10
2023-05-13T07:03:25.011Z,3.20
2023-05-13T07:04:29.044Z,3.00
2023-05-13T07:05:32.398Z,3.70
2023-05-13T07:06:35.350Z,3.70
2023-05-13T07:07:37.802Z,3.91
2023-05-13T07:08:40.306Z,4.20
2023-05-13T07:09:42.478Z,3.40
2023-05-13T07:10:44.858Z,2.60
2023-05-13T07:11:47.322Z,2.00
2023-05-13T07:12:50.708Z,2.80
2023-05-13T07:13:52.984Z,2.50
2023-05-13T07:14:55.269Z,3.60
2023-05-13T07:15:57.364Z,6.30
2023-05-13T07:16:59.820Z,21.60
2023-05-13T07:18:04.312Z,3.90
2023-05-13T07:19:08.015Z,10.30
2023-05-13T07:20:11.231Z,2.40
2023-05-13T07:21:14.688Z,4.09
2023-05-13T07:22:17.730Z,3.30
2023-05-13T07:23:19.692Z,3.40
2023-05-13T07:24:22.936Z,3.00
2023-05-13T07:25:27.091Z,2.40
2023-05-13T07:26:29.452Z,3.00
2023-05-13T07:27:31.554Z,2.10
2023-05-13T07:28:34.821Z,4.80
2023-05-13T07:29:36.878Z,3.70
2023-05-13T07:30:42.271Z,3.00
2023-05-13T07:31:44.646Z,3.90
2023-05-13T07:32:46.768Z,3.20
2023-05-13T07:33:49.911Z,3.00
2023-05-13T07:34:51.973Z,3.20
2023-05-13T07:35:54.167Z,2.20
2023-05-13T07:36:56.571Z,2.70
2023-05-13T07:37:59.669Z,3.30
2023-05-13T07:39:03.254Z,2.80
2023-05-13T07:40:09.078Z,2.50
2023-05-13T07:41:12.435Z,2.40
2023-05-13T07:42:14.764Z,3.00
2023-05-13T07:43:22.774Z,3.00
2023-05-13T07:44:25.322Z,2.60
2023-05-13T07:45:28.503Z,2.80
2023-05-13T07:46:32.182Z,2.50
2023-05-13T07:47:44.662Z,2.00
2023-05-13T07:48:47.694Z,3.30
2023-05-13T07:49:50.738Z,4.50
2023-05-13T07:50:53.380Z,3.91
2023-05-13T07:51:56.077Z,2.50
2023-05-13T07:52:58.405Z,3.00
2023-05-13T07:54:00.686Z,4.00
2023-05-13T07:55:03.360Z,3.90
2023-05-13T07:56:05.948Z,3.10
2023-05-13T07:57:08.282Z,4.10
2023-05-13T07:58:10.483Z,1.90
2023-05-13T07:59:12.791Z,2.90
2023-05-13T08:00:16.054Z,4.30
2023-05-13T08:01:18.746Z,4.30
2023-05-13T08:02:21.503Z,3.20
2023-05-13T08:03:23.925Z,3.20
2023-05-13T08:04:26.259Z,2.60
2023-05-13T08:05:28.469Z,1.80
2023-05-13T08:06:32.991Z,3.10
2023-05-13T08:07:35.992Z,3.00
2023-05-13T08:08:38.267Z,2.73
2023-05-13T08:09:40.263Z,2.40
2023-05-13T08:10:42.765Z,2.60
2023-05-13T08:11:45.186Z,1.80
2023-05-13T08:12:49.376Z,4.00
2023-05-13T08:13:51.804Z,2.80
2023-05-13T08:14:53.926Z,2.10
2023-05-13T08:15:56.155Z,2.00
2023-05-13T08:16:58.564Z,2.70
2023-05-13T08:18:02.329Z,2.50
2023-05-13T08:19:04.707Z,3.00
2023-05-13T08:20:08.391Z,4.00
2023-05-13T08:21:11.330Z,2.70
2023-05-13T08:22:13.540Z,2.73
2023-05-13T08:23:15.771Z,2.90
2023-05-13T08:24:19.022Z,2.40
2023-05-13T08:25:21.490Z,0.90
2023-05-13T08:26:24.378Z,1.90
2023-05-13T08:27:27.676Z,2.18
2023-05-13T08:28:30.509Z,1.70
2023-05-13T08:29:32.911Z,2.36
2023-05-13T08:30:36.286Z,3.00
2023-05-13T08:31:38.790Z,3.00
2023-05-13T08:32:41.975Z,3.00
2023-05-13T08:33:46.210Z,2.20
2023-05-13T08:34:48.604Z,2.90
2023-05-13T08:35:50.925Z,2.80
2023-05-13T08:36:53.531Z,2.40
2023-05-13T08:37:55.726Z,2.50
2023-05-13T08:38:57.952Z,2.40
2023-05-13T08:40:02.784Z,2.70
2023-05-13T08:41:05.946Z,2.90
2023-05-13T08:42:08.380Z,2.60
2023-05-13T08:43:12.856Z,2.30
2023-05-13T08:44:18.355Z,3.40
2023-05-13T08:45:22.499Z,2.90
2023-05-13T08:46:28.023Z,1.90
2023-05-13T08:47:49.436Z,1.00
2023-05-13T08:48:53.096Z,2.10
2023-05-13T08:49:56.169Z,3.00
2023-05-13T08:51:01.333Z,3.10
2023-05-13T08:52:04.444Z,2.50
2023-05-13T08:53:07.315Z,2.70
2023-05-13T08:54:10.868Z,2.45
2023-05-13T08:55:13.714Z,2.20
2023-05-13T08:56:16.584Z,2.20
2023-05-13T08:57:19.202Z,3.00
2023-05-13T08:58:22.437Z,1.70
2023-05-13T08:59:26.411Z,2.70
2023-05-13T09:00:30.131Z,2.20
2023-05-13T09:01:32.670Z,2.20
2023-05-13T09:02:35.020Z,1.70
2023-05-13T09:03:41.821Z,2.70
2023-05-13T09:04:47.682Z,2.50
2023-05-13T09:05:50.515Z,2.60
2023-05-13T09:06:54.896Z,2.00
2023-05-13T09:07:56.997Z,2.00
2023-05-13T09:09:00.110Z,3.00
2023-05-13T09:10:06.699Z,2.80
2023-05-13T09:11:10.109Z,2.60
2023-05-13T09:12:12.381Z,1.20
2023-05-13T09:13:18.717Z,2.20
2023-05-13T09:14:21.170Z,2.30
2023-05-13T09:15:26.023Z,2.40
2023-05-13T09:16:30.103Z,2.30
2023-05-13T09:17:35.371Z,2.30
2023-05-13T09:18:39.394Z,2.40
2023-05-13T09:19:42.297Z,2.50
2023-05-13T09:20:45.544Z,2.50
2023-05-13T09:21:47.992Z,2.50
2023-05-13T09:22:52.336Z,2.80
2023-05-13T09:24:11.575Z,2.60
2023-05-13T09:25:16.305Z,3.40
2023-05-13T09:26:29.703Z,2.80
2023-05-13T09:27:39.949Z,2.60
2023-05-13T09:28:42.579Z,2.20
2023-05-13T09:29:44.737Z,3.20
2023-05-13T09:30:51.586Z,2.20
2023-05-13T09:31:57.522Z,2.10
2023-05-13T09:33:09.406Z,2.80
2023-05-13T09:34:13.268Z,2.50
2023-05-13T09:35:16.631Z,4.00
2023-05-13T09:36:19.211Z,3.00
2023-05-13T09:37:24.325Z,2.70
2023-05-13T09:38:32.318Z,2.70
2023-05-13T09:39:40.639Z,3.60
2023-05-13T09:40:53.649Z,3.40
2023-05-13T09:41:55.931Z,2.60
2023-05-13T09:42:58.860Z,1.90
2023-05-13T09:44:04.600Z,3.00
2023-05-13T09:45:08.152Z,2.40
2023-05-13T09:46:10.776Z,2.00
2023-05-13T09:47:17.203Z,2.50
2023-05-13T09:48:22.642Z,2.70
2023-05-13T09:49:41.560Z,2.50
2023-05-13T09:50:50.671Z,2.20
2023-05-13T09:51:52.996Z,2.30
2023-05-13T09:52:55.627Z,2.60
2023-05-13T09:54:05.645Z,2.00
2023-05-13T09:55:46.165Z,2.00
2023-05-13T09:57:18.696Z,2.90
2023-05-13T09:58:23.694Z,2.00
2023-05-13T09:59:26.166Z,2.40
2023-05-13T10:00:33.169Z,2.82
2023-05-13T10:02:49.225Z,3.00
2023-05-13T10:03:55.572Z,3.40
2023-05-13T10:04:59.443Z,2.40
2023-05-13T10:06:05.584Z,1.90
2023-05-13T10:07:09.563Z,2.70
2023-05-13T10:08:14.948Z,2.00
2023-05-13T10:09:17.774Z,2.20
2023-05-13T10:10:23.578Z,2.30
2023-05-13T10:11:29.051Z,2.00
2023-05-13T10:12:35.775Z,2.00
2023-05-13T10:13:39.496Z,2.20
2023-05-13T10:14:43.824Z,2.20
2023-05-13T10:15:51.553Z,2.40
2023-05-13T10:16:55.650Z,2.40
2023-05-13T10:18:00.323Z,3.20
2023-05-13T10:19:04.237Z,2.80
2023-05-13T10:20:07.914Z,2.10
2023-05-13T10:21:13.118Z,6.20
2023-05-13T10:22:31.203Z,2.60
2023-05-13T10:23:36.780Z,2.40
2023-05-13T10:24:42.310Z,2.20
2023-05-13T10:25:52.405Z,2.25
2023-05-13T10:26:55.771Z,2.90
2023-05-13T10:28:00.436Z,2.90
2023-05-13T10:29:13.459Z,2.70
2023-05-13T10:30:18.256Z,2.60
2023-05-13T10:31:21.107Z,2.40
2023-05-13T10:32:25.897Z,2.36
2023-05-13T10:33:28.981Z,2.70
2023-05-13T10:34:34.361Z,2.10
2023-05-13T10:35:42.681Z,2.20
2023-05-13T10:38:16.053Z,2.30
2023-05-13T10:39:22.142Z,3.00
2023-05-13T10:41:05.002Z,2.60
2023-05-13T10:50:28.071Z,3.00
2023-05-13T10:51:32.046Z,2.70
2023-05-13T10:52:48.267Z,2.10
2023-05-13T10:53:55.171Z,3.70
2023-05-13T10:55:07.091Z,3.00
2023-05-13T10:56:11.449Z,2.20
2023-05-13T10:57:13.724Z,2.90
2023-05-13T10:58:18.882Z,2.00
2023-05-13T10:59:22.218Z,2.00
2023-05-13T11:00:28.800Z,3.50
2023-05-13T11:01:42.020Z,2.00
2023-05-13T11:02:44.499Z,3.00
2023-05-13T11:03:52.959Z,1.90
2023-05-13T11:04:59.879Z,3.40
2023-05-13T11:06:14.374Z,2.30
2023-05-13T11:07:16.965Z,1.60
2023-05-13T11:09:39.708Z,2.00
2023-05-13T11:10:45.674Z,2.40
2023-05-13T11:11:56.007Z,2.30
2023-05-13T11:13:22.194Z,2.40
2023-05-13T11:14:27.597Z,2.60
2023-05-13T11:15:50.878Z,5.60
2023-05-13T11:16:56.256Z,2.60
2023-05-13T11:17:58.985Z,3.60
2023-05-13T11:19:07.966Z,2.09
2023-05-13T11:20:12.288Z,3.70
2023-05-13T11:21:15.891Z,2.80
2023-05-13T11:22:21.411Z,3.30
2023-05-13T11:23:23.695Z,2.60
2023-05-13T11:24:26.208Z,3.30
2023-05-13T11:25:28.430Z,2.10
2023-05-13T11:26:45.967Z,3.00
2023-05-13T11:27:48.129Z,3.50
2023-05-13T11:29:06.498Z,2.90
2023-05-13T11:30:24.580Z,2.10
2023-05-13T11:31:28.589Z,2.40
2023-05-13T11:32:57.009Z,3.00
2023-05-13T11:34:17.885Z,2.10
2023-05-13T11:35:25.506Z,3.40
2023-05-13T11:36:33.653Z,2.10
2023-05-13T11:37:40.123Z,2.50
2023-05-13T11:38:42.827Z,2.10
2023-05-13T11:39:45.286Z,2.20
2023-05-13T11:40:49.770Z,3.20
2023-05-13T11:41:54.477Z,3.00
2023-05-13T11:42:57.929Z,2.30
2023-05-13T11:44:02.784Z,2.10
2023-05-13T11:45:06.816Z,1.90
2023-05-13T11:46:12.985Z,2.20
2023-05-13T11:47:19.109Z,1.70
2023-05-13T11:48:23.449Z,1.80
2023-05-13T11:49:41.078Z,3.00
2023-05-13T11:50:44.036Z,2.10
2023-05-13T11:51:46.166Z,2.00
2023-05-13T11:52:54.150Z,2.90
2023-05-13T11:54:02.853Z,2.80
2023-05-13T11:55:07.124Z,2.20
2023-05-13T11:56:13.961Z,1.70
2023-05-13T11:57:25.680Z,1.00
2023-05-13T11:58:28.253Z,3.00
2023-05-13T11:59:38.672Z,1.80
2023-05-13T12:00:36.054Z,1.60
2023-05-13T12:01:38.455Z,2.10
2023-05-13T12:02:41.055Z,1.80
2023-05-13T12:03:43.885Z,2.27
2023-05-13T12:04:46.081Z,2.90
2023-05-13T12:05:48.707Z,1.80
2023-05-13T12:06:51.145Z,2.18
2023-05-13T12:07:58.952Z,2.40
2023-05-13T12:09:09.147Z,2.70
2023-05-13T12:10:14.083Z,2.30
2023-05-13T12:11:16.663Z,1.70
2023-05-13T12:12:20.829Z,2.90
2023-05-13T12:13:23.767Z,3.00
2023-05-13T12:14:27.762Z,3.45
2023-05-13T12:15:30.580Z,1.70
2023-05-13T12:16:33.572Z,2.55
2023-05-13T12:17:37.075Z,1.50
2023-05-13T12:19:05.133Z,4.50
2023-05-13T12:20:20.065Z,1.80
2023-05-13T12:21:23.143Z,2.30
2023-05-13T12:22:25.571Z,2.10
2023-05-13T12:23:40.900Z,2.20
2023-05-13T12:24:43.617Z,2.00
2023-05-13T12:25:49.886Z,3.18
2023-05-13T12:26:53.312Z,3.00
2023-05-13T12:27:56.895Z,3.00
2023-05-13T12:29:00.210Z,2.20
2023-05-13T12:30:04.275Z,3.00
2023-05-13T12:31:10.599Z,2.91
2023-05-13T12:32:16.027Z,3.80
2023-05-13T12:33:21.858Z,3.00
2023-05-13T12:34:35.281Z,1.00
2023-05-13T12:35:37.523Z,2.90
2023-05-13T12:36:40.515Z,2.70
2023-05-13T12:37:42.898Z,2.60
2023-05-13T12:39:10.913Z,2.70
2023-05-13T12:40:14.491Z,2.90
2023-05-13T12:41:17.619Z,2.90
2023-05-13T12:42:19.921Z,2.50
2023-05-13T12:43:22.741Z,3.00
2023-05-13T12:44:26.119Z,2.00
2023-05-13T12:45:35.106Z,3.20
2023-05-13T12:46:39.121Z,3.00
2023-05-13T12:47:49.785Z,2.20
2023-05-13T12:48:56.690Z,2.60
2023-05-13T12:50:00.405Z,3.10
2023-05-13T12:51:02.730Z,2.10
2023-05-13T12:52:05.681Z,1.80
2023-05-13T12:53:07.906Z,2.10
2023-05-13T12:54:11.495Z,2.50
2023-05-13T12:55:14.030Z,3.10
2023-05-13T12:56:16.943Z,3.00
2023-05-13T12:57:19.964Z,2.30
2023-05-13T12:58:22.362Z,1.90
2023-05-13T12:59:26.483Z,2.80
2023-05-13T13:00:30.904Z,3.50
2023-05-13T13:01:39.390Z,2.60
2023-05-13T13:02:49.560Z,1.80
2023-05-13T13:03:54.537Z,2.30
2023-05-13T13:04:59.006Z,3.70
2023-05-13T13:06:01.555Z,3.10
2023-05-13T13:07:06.218Z,3.00
2023-05-13T13:08:08.675Z,3.00
2023-05-13T13:09:13.223Z,3.90
2023-05-13T13:10:16.746Z,3.20
2023-05-13T13:11:20.172Z,4.00
2023-05-13T13:12:22.951Z,3.50
2023-05-13T13:13:26.384Z,3.80
2023-05-13T13:14:29.012Z,3.40
2023-05-13T13:15:31.522Z,3.40
2023-05-13T13:16:34.370Z,3.45
2023-05-13T13:17:38.540Z,2.20
2023-05-13T13:18:42.420Z,2.80
2023-05-13T13:19:45.174Z,3.70
2023-05-13T13:20:47.727Z,3.60
2023-05-13T13:21:49.912Z,3.40
2023-05-13T13:22:54.299Z,2.50
2023-05-13T13:23:57.235Z,2.50
2023-05-13T13:24:59.513Z,4.00
2023-05-13T13:26:01.854Z,4.80
2023-05-13T13:27:04.313Z,3.40
2023-05-13T13:28:06.630Z,2.10
2023-05-13T13:29:08.941Z,2.80
2023-05-13T13:30:13.984Z,3.00
2023-05-13T13:31:16.315Z,2.20
2023-05-13T13:32:18.454Z,3.00
2023-05-13T13:33:21.668Z,1.90
2023-05-13T13:34:24.052Z,2.90
2023-05-13T13:35:26.282Z,3.40
2023-05-13T13:36:28.470Z,2.30
2023-05-13T13:37:30.725Z,3.70
2023-05-13T13:38:33.901Z,3.30
2023-05-13T13:39:36.432Z,3.10
2023-05-13T13:40:39.211Z,3.55
2023-05-13T13:41:41.437Z,3.80
2023-05-13T13:42:45.146Z,2.00
2023-05-13T13:43:47.904Z,1.20
2023-05-13T13:44:50.401Z,3.20
2023-05-13T13:45:53.705Z,2.90
2023-05-13T13:46:56.323Z,4.40
2023-05-13T13:48:00.238Z,4.20
2023-05-13T13:49:07.776Z,2.60
2023-05-13T13:50:07.384Z,2.90
2023-05-13T13:51:11.353Z,3.64
2023-05-13T13:52:14.641Z,2.70
2023-05-13T13:53:16.874Z,2.90
2023-05-13T13:54:19.288Z,30.40
2023-05-13T13:55:23.340Z,20.50
2023-05-13T13:56:25.477Z,4.00
2023-05-13T13:57:27.734Z,1.89
2023-05-13T13:58:30.221Z,2.89
2023-05-13T13:59:32.168Z,1.44
2023-05-13T14:00:36.267Z,2.11
2023-05-13T14:01:39.860Z,2.70
2023-05-13T14:02:43.632Z,3.45
2023-05-13T14:03:53.509Z,4.00
2023-05-13T14:04:57.108Z,0.30
2023-05-13T14:05:59.334Z,3.30
2023-05-13T14:07:01.577Z,2.00
2023-05-13T14:08:03.656Z,2.44
2023-05-13T14:09:06.992Z,5.00
2023-05-13T14:10:10.132Z,0.70
2023-05-13T14:11:13.905Z,2.50
2023-05-13T14:12:16.176Z,1.70
2023-05-13T14:13:18.340Z,2.00
2023-05-13T14:14:20.491Z,2.22
2023-05-13T14:15:23.750Z,1.67
2023-05-13T14:16:26.207Z,2.70
2023-05-13T14:17:28.830Z,2.44
2023-05-13T14:18:31.340Z,0.78
2023-05-13T14:19:33.445Z,2.56
2023-05-13T14:20:36.130Z,2.78
2023-05-13T14:21:38.466Z,1.80